Ashland, Texas
Current Conditions -  °F | °C
As of 2:53 AM on Monday 22 Dec 2014 (Local Time) from KGGG Reporting Station
Overcast Overcast  
Wind Chill: 52°   Ceiling: 1200
Heat Index: 52°   Visibility: 10mi
Dew Point: 48°   Wind: 8mph
Humidity: 86%   Direction: 170°S
Pressure: 29.75"   Gusts: NA
Location:  32.6998°N, 94.6696°W
Report Text: KGGG 220853Z AUTO 17007KT 10SM OVC012 11/09 A2975 RMK AO2 SLP075 T01110089 56026 $
Loading
Personal Weather Stations






























Interactive Weather Map New forecast layout! Learn more

10-Day Weather Forecast

Advertisements
Track Severe Weather on mobile